sensor_id;sensor_type;location;lat;lon;timestamp;temperature;humidity
70947;DHT22;58605;48.700;8.760;2023-09-30T00:00:27;16.40;83.30
70947;DHT22;58605;48.700;8.760;2023-09-30T00:02:53;16.50;83.40
70947;DHT22;58605;48.700;8.760;2023-09-30T00:05:20;16.50;83.10
70947;DHT22;58605;48.700;8.760;2023-09-30T00:07:46;16.50;83.80
70947;DHT22;58605;48.700;8.760;2023-09-30T00:10:14;16.60;82.70
70947;DHT22;58605;48.700;8.760;2023-09-30T00:12:40;16.70;82.10
70947;DHT22;58605;48.700;8.760;2023-09-30T00:15:07;16.70;82.40
70947;DHT22;58605;48.700;8.760;2023-09-30T00:17:33;16.80;82.50
70947;DHT22;58605;48.700;8.760;2023-09-30T00:20:00;16.90;82.20
70947;DHT22;58605;48.700;8.760;2023-09-30T00:22:27;16.90;81.60
70947;DHT22;58605;48.700;8.760;2023-09-30T00:24:54;17.00;81.10
70947;DHT22;58605;48.700;8.760;2023-09-30T00:27:22;17.10;80.60
70947;DHT22;58605;48.700;8.760;2023-09-30T00:29:48;17.10;81.10
70947;DHT22;58605;48.700;8.760;2023-09-30T00:32:14;17.00;81.20
70947;DHT22;58605;48.700;8.760;2023-09-30T00:34:41;16.90;82.00
70947;DHT22;58605;48.700;8.760;2023-09-30T00:37:07;16.90;82.50
70947;DHT22;58605;48.700;8.760;2023-09-30T00:39:33;17.00;82.60
70947;DHT22;58605;48.700;8.760;2023-09-30T00:42:00;17.00;82.30
70947;DHT22;58605;48.700;8.760;2023-09-30T00:44:28;16.90;81.40
70947;DHT22;58605;48.700;8.760;2023-09-30T00:46:54;16.80;82.10
70947;DHT22;58605;48.700;8.760;2023-09-30T00:49:22;16.60;83.10
70947;DHT22;58605;48.700;8.760;2023-09-30T00:51:49;16.40;83.70
70947;DHT22;58605;48.700;8.760;2023-09-30T00:54:17;16.30;83.40
70947;DHT22;58605;48.700;8.760;2023-09-30T00:56:46;16.30;82.70
70947;DHT22;58605;48.700;8.760;2023-09-30T00:59:13;16.20;83.30
70947;DHT22;58605;48.700;8.760;2023-09-30T01:01:42;16.30;82.70
70947;DHT22;58605;48.700;8.760;2023-09-30T01:04:10;16.30;82.60
70947;DHT22;58605;48.700;8.760;2023-09-30T01:06:36;16.20;82.30
70947;DHT22;58605;48.700;8.760;2023-09-30T01:09:03;16.40;81.60
70947;DHT22;58605;48.700;8.760;2023-09-30T01:11:29;16.20;81.40
70947;DHT22;58605;48.700;8.760;2023-09-30T01:14:02;15.90;82.00
70947;DHT22;58605;48.700;8.760;2023-09-30T01:16:28;15.60;82.80
70947;DHT22;58605;48.700;8.760;2023-09-30T01:18:56;15.40;83.10
70947;DHT22;58605;48.700;8.760;2023-09-30T01:21:23;15.20;83.80
70947;DHT22;58605;48.700;8.760;2023-09-30T01:23:51;15.10;84.80
70947;DHT22;58605;48.700;8.760;2023-09-30T01:26:17;15.10;85.70
70947;DHT22;58605;48.700;8.760;2023-09-30T01:28:45;15.10;86.00
70947;DHT22;58605;48.700;8.760;2023-09-30T01:31:11;15.30;86.20
70947;DHT22;58605;48.700;8.760;2023-09-30T01:33:38;15.50;85.90
70947;DHT22;58605;48.700;8.760;2023-09-30T01:36:04;15.70;85.20
70947;DHT22;58605;48.700;8.760;2023-09-30T01:38:30;15.70;85.60
70947;DHT22;58605;48.700;8.760;2023-09-30T01:40:58;15.70;86.40
70947;DHT22;58605;48.700;8.760;2023-09-30T01:43:30;15.80;86.50
70947;DHT22;58605;48.700;8.760;2023-09-30T01:45:57;15.80;86.40
70947;DHT22;58605;48.700;8.760;2023-09-30T01:48:23;15.80;85.70
70947;DHT22;58605;48.700;8.760;2023-09-30T01:50:50;15.90;86.30
70947;DHT22;58605;48.700;8.760;2023-09-30T01:53:16;16.00;86.10
70947;DHT22;58605;48.700;8.760;2023-09-30T01:55:42;16.10;85.50
70947;DHT22;58605;48.700;8.760;2023-09-30T01:58:11;16.10;84.60
70947;DHT22;58605;48.700;8.760;2023-09-30T02:03:59;16.30;84.10
70947;DHT22;58605;48.700;8.760;2023-09-30T02:06:26;16.30;84.10
70947;DHT22;58605;48.700;8.760;2023-09-30T02:08:52;16.00;84.00
70947;DHT22;58605;48.700;8.760;2023-09-30T02:11:18;15.80;84.10
70947;DHT22;58605;48.700;8.760;2023-09-30T02:13:46;15.70;84.70
70947;DHT22;58605;48.700;8.760;2023-09-30T02:16:12;15.60;84.80
70947;DHT22;58605;48.700;8.760;2023-09-30T02:18:39;15.70;84.70
70947;DHT22;58605;48.700;8.760;2023-09-30T02:21:07;15.60;84.90
70947;DHT22;58605;48.700;8.760;2023-09-30T02:23:35;15.50;85.60
70947;DHT22;58605;48.700;8.760;2023-09-30T02:26:01;15.40;85.70
70947;DHT22;58605;48.700;8.760;2023-09-30T02:28:28;15.20;86.20
70947;DHT22;58605;48.700;8.760;2023-09-30T02:30:57;15.10;86.70
70947;DHT22;58605;48.700;8.760;2023-09-30T02:33:23;15.00;87.30
70947;DHT22;58605;48.700;8.760;2023-09-30T02:35:51;15.00;87.50
70947;DHT22;58605;48.700;8.760;2023-09-30T02:38:17;15.10;87.50
70947;DHT22;58605;48.700;8.760;2023-09-30T02:40:44;15.20;87.80
70947;DHT22;58605;48.700;8.760;2023-09-30T02:43:12;15.20;87.50
70947;DHT22;58605;48.700;8.760;2023-09-30T02:45:39;15.20;87.50
70947;DHT22;58605;48.700;8.760;2023-09-30T02:48:07;15.20;87.70
70947;DHT22;58605;48.700;8.760;2023-09-30T02:50:34;15.20;87.60
70947;DHT22;58605;48.700;8.760;2023-09-30T02:53:00;15.20;88.00
70947;DHT22;58605;48.700;8.760;2023-09-30T02:55:26;15.20;87.10
70947;DHT22;58605;48.700;8.760;2023-09-30T02:57:52;15.30;87.20
70947;DHT22;58605;48.700;8.760;2023-09-30T03:00:18;15.40;86.70
70947;DHT22;58605;48.700;8.760;2023-09-30T03:02:52;15.40;87.20
70947;DHT22;58605;48.700;8.760;2023-09-30T03:05:21;15.50;87.40
70947;DHT22;58605;48.700;8.760;2023-09-30T03:07:47;15.40;86.70
70947;DHT22;58605;48.700;8.760;2023-09-30T03:10:14;15.30;86.70
70947;DHT22;58605;48.700;8.760;2023-09-30T03:12:46;15.20;87.30
70947;DHT22;58605;48.700;8.760;2023-09-30T03:15:12;15.00;87.90
70947;DHT22;58605;48.700;8.760;2023-09-30T03:17:38;15.00;88.10
70947;DHT22;58605;48.700;8.760;2023-09-30T03:20:06;14.90;88.00
70947;DHT22;58605;48.700;8.760;2023-09-30T03:22:38;15.00;88.10
70947;DHT22;58605;48.700;8.760;2023-09-30T03:25:05;15.00;88.10
70947;DHT22;58605;48.700;8.760;2023-09-30T03:27:33;15.00;88.00
70947;DHT22;58605;48.700;8.760;2023-09-30T03:29:59;15.00;88.20
70947;DHT22;58605;48.700;8.760;2023-09-30T03:32:27;15.00;88.60
70947;DHT22;58605;48.700;8.760;2023-09-30T03:34:55;15.10;88.40
70947;DHT22;58605;48.700;8.760;2023-09-30T03:37:24;15.20;88.10
70947;DHT22;58605;48.700;8.760;2023-09-30T03:39:54;15.40;88.40
70947;DHT22;58605;48.700;8.760;2023-09-30T03:42:20;15.40;87.90
70947;DHT22;58605;48.700;8.760;2023-09-30T03:44:46;15.60;87.00
70947;DHT22;58605;48.700;8.760;2023-09-30T03:47:13;15.80;86.50
70947;DHT22;58605;48.700;8.760;2023-09-30T03:49:40;15.70;86.30
70947;DHT22;58605;48.700;8.760;2023-09-30T03:52:06;15.60;86.30
70947;DHT22;58605;48.700;8.760;2023-09-30T03:54:32;15.40;86.50
70947;DHT22;58605;48.700;8.760;2023-09-30T03:56:59;15.20;87.00
70947;DHT22;58605;48.700;8.760;2023-09-30T03:59:26;15.30;87.10
70947;DHT22;58605;48.700;8.760;2023-09-30T04:01:52;15.30;86.80
70947;DHT22;58605;48.700;8.760;2023-09-30T04:04:19;15.20;87.00
70947;DHT22;58605;48.700;8.760;2023-09-30T04:06:53;15.10;87.10
70947;DHT22;58605;48.700;8.760;2023-09-30T04:09:19;14.90;87.80
70947;DHT22;58605;48.700;8.760;2023-09-30T04:11:45;14.80;87.70
70947;DHT22;58605;48.700;8.760;2023-09-30T04:14:13;14.80;88.40
70947;DHT22;58605;48.700;8.760;2023-09-30T04:16:42;14.70;88.70
70947;DHT22;58605;48.700;8.760;2023-09-30T04:19:08;14.70;88.00
70947;DHT22;58605;48.700;8.760;2023-09-30T04:21:36;14.70;87.90
70947;DHT22;58605;48.700;8.760;2023-09-30T04:24:05;14.70;88.70
70947;DHT22;58605;48.700;8.760;2023-09-30T04:26:32;14.60;89.10
70947;DHT22;58605;48.700;8.760;2023-09-30T04:28:58;14.70;89.00
70947;DHT22;58605;48.700;8.760;2023-09-30T04:31:27;14.70;89.20
70947;DHT22;58605;48.700;8.760;2023-09-30T04:33:54;14.80;89.10
70947;DHT22;58605;48.700;8.760;2023-09-30T04:36:20;14.90;88.80
70947;DHT22;58605;48.700;8.760;2023-09-30T04:38:47;14.80;89.00
70947;DHT22;58605;48.700;8.760;2023-09-30T04:41:13;14.80;89.20
70947;DHT22;58605;48.700;8.760;2023-09-30T04:43:41;14.80;89.70
70947;DHT22;58605;48.700;8.760;2023-09-30T04:46:09;14.90;89.50
70947;DHT22;58605;48.700;8.760;2023-09-30T04:48:36;15.10;88.20
70947;DHT22;58605;48.700;8.760;2023-09-30T04:51:06;15.20;87.40
70947;DHT22;58605;48.700;8.760;2023-09-30T04:53:34;15.20;86.60
70947;DHT22;58605;48.700;8.760;2023-09-30T04:56:00;15.10;87.70
70947;DHT22;58605;48.700;8.760;2023-09-30T04:58:27;14.90;87.80
70947;DHT22;58605;48.700;8.760;2023-09-30T05:00:55;14.80;88.10
70947;DHT22;58605;48.700;8.760;2023-09-30T05:03:21;14.70;88.90
70947;DHT22;58605;48.700;8.760;2023-09-30T05:05:51;14.70;89.40
70947;DHT22;58605;48.700;8.760;2023-09-30T05:08:19;14.70;89.10
70947;DHT22;58605;48.700;8.760;2023-09-30T05:10:45;14.70;89.50
70947;DHT22;58605;48.700;8.760;2023-09-30T05:13:11;14.70;88.80
70947;DHT22;58605;48.700;8.760;2023-09-30T05:15:38;14.80;89.40
70947;DHT22;58605;48.700;8.760;2023-09-30T05:18:04;14.80;89.80
70947;DHT22;58605;48.700;8.760;2023-09-30T05:20:30;14.90;88.50
70947;DHT22;58605;48.700;8.760;2023-09-30T05:22:58;14.90;88.40
70947;DHT22;58605;48.700;8.760;2023-09-30T05:25:24;15.00;88.30
70947;DHT22;58605;48.700;8.760;2023-09-30T05:27:52;14.90;88.30
70947;DHT22;58605;48.700;8.760;2023-09-30T05:30:18;14.80;88.60
70947;DHT22;58605;48.700;8.760;2023-09-30T05:32:46;14.80;88.50
70947;DHT22;58605;48.700;8.760;2023-09-30T05:35:12;14.70;88.20
70947;DHT22;58605;48.700;8.760;2023-09-30T05:37:39;14.60;88.30
70947;DHT22;58605;48.700;8.760;2023-09-30T05:40:08;14.70;88.70
70947;DHT22;58605;48.700;8.760;2023-09-30T05:42:46;14.70;88.20
70947;DHT22;58605;48.700;8.760;2023-09-30T05:45:12;14.50;88.10
70947;DHT22;58605;48.700;8.760;2023-09-30T05:47:38;14.40;87.20
70947;DHT22;58605;48.700;8.760;2023-09-30T05:50:07;14.30;87.80
70947;DHT22;58605;48.700;8.760;2023-09-30T05:52:33;14.50;89.10
70947;DHT22;58605;48.700;8.760;2023-09-30T05:54:59;14.70;88.80
70947;DHT22;58605;48.700;8.760;2023-09-30T05:57:28;14.50;87.70
70947;DHT22;58605;48.700;8.760;2023-09-30T05:59:54;14.30;88.50
70947;DHT22;58605;48.700;8.760;2023-09-30T06:02:20;14.30;89.30
70947;DHT22;58605;48.700;8.760;2023-09-30T06:04:46;14.20;89.90
70947;DHT22;58605;48.700;8.760;2023-09-30T06:07:13;14.20;90.00
70947;DHT22;58605;48.700;8.760;2023-09-30T06:09:39;14.20;90.10
70947;DHT22;58605;48.700;8.760;2023-09-30T06:12:05;14.20;90.00
70947;DHT22;58605;48.700;8.760;2023-09-30T06:14:34;14.20;90.10
70947;DHT22;58605;48.700;8.760;2023-09-30T06:17:00;14.20;90.00
70947;DHT22;58605;48.700;8.760;2023-09-30T06:19:26;14.10;90.00
70947;DHT22;58605;48.700;8.760;2023-09-30T06:21:52;14.10;90.10
70947;DHT22;58605;48.700;8.760;2023-09-30T06:24:18;14.00;90.20
70947;DHT22;58605;48.700;8.760;2023-09-30T06:26:47;14.10;90.40
70947;DHT22;58605;48.700;8.760;2023-09-30T06:29:17;14.20;90.40
70947;DHT22;58605;48.700;8.760;2023-09-30T06:31:44;14.20;90.60
70947;DHT22;58605;48.700;8.760;2023-09-30T06:34:10;14.30;90.70
70947;DHT22;58605;48.700;8.760;2023-09-30T06:36:37;14.40;90.60
70947;DHT22;58605;48.700;8.760;2023-09-30T06:39:03;14.50;90.20
70947;DHT22;58605;48.700;8.760;2023-09-30T06:41:31;14.60;90.00
70947;DHT22;58605;48.700;8.760;2023-09-30T06:43:59;14.70;89.80
70947;DHT22;58605;48.700;8.760;2023-09-30T06:46:25;14.80;89.50
70947;DHT22;58605;48.700;8.760;2023-09-30T06:48:53;14.90;89.30
70947;DHT22;58605;48.700;8.760;2023-09-30T06:51:19;15.00;89.40
70947;DHT22;58605;48.700;8.760;2023-09-30T06:53:45;15.00;88.90
70947;DHT22;58605;48.700;8.760;2023-09-30T06:56:12;15.10;89.40
70947;DHT22;58605;48.700;8.760;2023-09-30T06:58:38;15.10;88.80
70947;DHT22;58605;48.700;8.760;2023-09-30T07:01:04;15.20;89.90
70947;DHT22;58605;48.700;8.760;2023-09-30T07:03:31;15.20;90.00
70947;DHT22;58605;48.700;8.760;2023-09-30T07:06:00;15.30;90.10
70947;DHT22;58605;48.700;8.760;2023-09-30T07:08:27;15.40;89.60
70947;DHT22;58605;48.700;8.760;2023-09-30T07:10:54;15.60;88.80
70947;DHT22;58605;48.700;8.760;2023-09-30T07:13:20;15.70;88.30
70947;DHT22;58605;48.700;8.760;2023-09-30T07:15:46;15.90;87.50
70947;DHT22;58605;48.700;8.760;2023-09-30T07:18:12;16.20;86.40
70947;DHT22;58605;48.700;8.760;2023-09-30T07:20:38;16.30;85.60
70947;DHT22;58605;48.700;8.760;2023-09-30T07:23:06;16.30;85.20
70947;DHT22;58605;48.700;8.760;2023-09-30T07:25:33;16.40;85.30
70947;DHT22;58605;48.700;8.760;2023-09-30T07:28:00;16.30;84.30
70947;DHT22;58605;48.700;8.760;2023-09-30T07:30:26;16.20;84.90
70947;DHT22;58605;48.700;8.760;2023-09-30T07:32:52;16.20;84.20
70947;DHT22;58605;48.700;8.760;2023-09-30T07:35:20;16.10;84.90
70947;DHT22;58605;48.700;8.760;2023-09-30T07:37:47;16.10;86.20
70947;DHT22;58605;48.700;8.760;2023-09-30T07:40:14;16.30;85.90
70947;DHT22;58605;48.700;8.760;2023-09-30T07:42:40;16.40;85.30
70947;DHT22;58605;48.700;8.760;2023-09-30T07:45:08;16.60;84.80
70947;DHT22;58605;48.700;8.760;2023-09-30T07:47:34;16.60;84.30
70947;DHT22;58605;48.700;8.760;2023-09-30T07:50:00;16.50;84.70
70947;DHT22;58605;48.700;8.760;2023-09-30T07:52:32;16.50;84.80
70947;DHT22;58605;48.700;8.760;2023-09-30T07:54:58;16.40;84.20
70947;DHT22;58605;48.700;8.760;2023-09-30T07:57:26;16.40;83.70
70947;DHT22;58605;48.700;8.760;2023-09-30T07:59:52;16.50;84.10
70947;DHT22;58605;48.700;8.760;2023-09-30T08:02:18;16.60;83.20
70947;DHT22;58605;48.700;8.760;2023-09-30T08:04:44;16.60;82.60
70947;DHT22;58605;48.700;8.760;2023-09-30T08:07:10;16.70;83.10
70947;DHT22;58605;48.700;8.760;2023-09-30T08:09:36;16.70;84.10
70947;DHT22;58605;48.700;8.760;2023-09-30T08:12:03;16.80;81.50
70947;DHT22;58605;48.700;8.760;2023-09-30T08:14:31;16.80;81.40
70947;DHT22;58605;48.700;8.760;2023-09-30T08:16:57;16.80;81.90
70947;DHT22;58605;48.700;8.760;2023-09-30T08:19:23;16.90;80.80
70947;DHT22;58605;48.700;8.760;2023-09-30T08:21:50;16.90;80.60
70947;DHT22;58605;48.700;8.760;2023-09-30T08:24:16;16.90;80.90
70947;DHT22;58605;48.700;8.760;2023-09-30T08:26:43;16.90;81.20
70947;DHT22;58605;48.700;8.760;2023-09-30T08:29:09;17.00;81.00
70947;DHT22;58605;48.700;8.760;2023-09-30T08:31:36;17.00;80.00
70947;DHT22;58605;48.700;8.760;2023-09-30T08:34:03;17.00;81.90
70947;DHT22;58605;48.700;8.760;2023-09-30T08:36:29;17.10;82.00
70947;DHT22;58605;48.700;8.760;2023-09-30T08:38:56;17.10;79.30
70947;DHT22;58605;48.700;8.760;2023-09-30T08:41:30;17.10;79.10
70947;DHT22;58605;48.700;8.760;2023-09-30T08:43:59;17.10;78.60
70947;DHT22;58605;48.700;8.760;2023-09-30T08:46:28;17.20;81.40
70947;DHT22;58605;48.700;8.760;2023-09-30T08:48:58;17.30;80.90
70947;DHT22;58605;48.700;8.760;2023-09-30T08:51:25;17.20;80.20
70947;DHT22;58605;48.700;8.760;2023-09-30T08:53:53;17.30;81.60
70947;DHT22;58605;48.700;8.760;2023-09-30T08:56:19;17.70;78.70
70947;DHT22;58605;48.700;8.760;2023-09-30T08:58:47;17.70;77.40
70947;DHT22;58605;48.700;8.760;2023-09-30T09:01:14;17.60;77.40
70947;DHT22;58605;48.700;8.760;2023-09-30T09:03:40;17.90;76.50
70947;DHT22;58605;48.700;8.760;2023-09-30T09:06:08;18.00;75.60
70947;DHT22;58605;48.700;8.760;2023-09-30T09:08:34;18.00;77.20
70947;DHT22;58605;48.700;8.760;2023-09-30T09:11:00;18.00;77.10
70947;DHT22;58605;48.700;8.760;2023-09-30T09:13:45;18.00;77.20
70947;DHT22;58605;48.700;8.760;2023-09-30T09:16:11;18.00;74.70
70947;DHT22;58605;48.700;8.760;2023-09-30T09:18:37;18.00;74.20
70947;DHT22;58605;48.700;8.760;2023-09-30T09:21:13;18.00;74.90
70947;DHT22;58605;48.700;8.760;2023-09-30T09:23:41;18.10;73.80
70947;DHT22;58605;48.700;8.760;2023-09-30T09:26:08;18.20;73.50
70947;DHT22;58605;48.700;8.760;2023-09-30T09:28:36;18.20;75.10
70947;DHT22;58605;48.700;8.760;2023-09-30T09:31:19;18.20;76.80
70947;DHT22;58605;48.700;8.760;2023-09-30T09:33:46;18.20;75.40
70947;DHT22;58605;48.700;8.760;2023-09-30T09:36:15;18.20;74.90
70947;DHT22;58605;48.700;8.760;2023-09-30T09:38:44;18.30;76.30
70947;DHT22;58605;48.700;8.760;2023-09-30T09:41:10;18.30;74.30
70947;DHT22;58605;48.700;8.760;2023-09-30T09:43:37;18.40;75.70
70947;DHT22;58605;48.700;8.760;2023-09-30T09:46:05;18.50;75.30
70947;DHT22;58605;48.700;8.760;2023-09-30T09:48:33;18.50;75.90
70947;DHT22;58605;48.700;8.760;2023-09-30T09:51:00;18.40;75.50
70947;DHT22;58605;48.700;8.760;2023-09-30T09:53:30;18.40;78.80
70947;DHT22;58605;48.700;8.760;2023-09-30T09:55:57;18.80;75.80
70947;DHT22;58605;48.700;8.760;2023-09-30T09:58:26;19.00;73.70
70947;DHT22;58605;48.700;8.760;2023-09-30T10:00:52;19.00;72.80
70947;DHT22;58605;48.700;8.760;2023-09-30T10:03:19;19.00;70.30
70947;DHT22;58605;48.700;8.760;2023-09-30T10:05:45;19.10;67.40
70947;DHT22;58605;48.700;8.760;2023-09-30T10:08:15;19.20;70.00
70947;DHT22;58605;48.700;8.760;2023-09-30T10:10:44;19.20;72.70
70947;DHT22;58605;48.700;8.760;2023-09-30T10:13:52;19.40;70.00
70947;DHT22;58605;48.700;8.760;2023-09-30T10:16:46;19.40;67.80
70947;DHT22;58605;48.700;8.760;2023-09-30T10:19:14;19.50;64.30
70947;DHT22;58605;48.700;8.760;2023-09-30T10:21:41;19.40;65.70
70947;DHT22;58605;48.700;8.760;2023-09-30T10:24:30;19.20;67.90
70947;DHT22;58605;48.700;8.760;2023-09-30T10:27:32;19.00;68.90
70947;DHT22;58605;48.700;8.760;2023-09-30T10:30:07;18.60;71.10
70947;DHT22;58605;48.700;8.760;2023-09-30T10:33:10;18.60;69.80
70947;DHT22;58605;48.700;8.760;2023-09-30T10:35:48;18.70;70.00
70947;DHT22;58605;48.700;8.760;2023-09-30T10:38:39;18.50;72.40
70947;DHT22;58605;48.700;8.760;2023-09-30T10:41:09;18.40;72.30
70947;DHT22;58605;48.700;8.760;2023-09-30T10:43:39;18.60;70.00
70947;DHT22;58605;48.700;8.760;2023-09-30T10:46:31;18.80;69.10
70947;DHT22;58605;48.700;8.760;2023-09-30T10:49:15;18.90;70.80
70947;DHT22;58605;48.700;8.760;2023-09-30T10:51:43;19.20;68.20
70947;DHT22;58605;48.700;8.760;2023-09-30T10:54:13;19.50;65.50
70947;DHT22;58605;48.700;8.760;2023-09-30T10:56:39;19.60;67.60
70947;DHT22;58605;48.700;8.760;2023-09-30T10:59:06;19.60;65.50
70947;DHT22;58605;48.700;8.760;2023-09-30T11:01:33;19.80;62.30
70947;DHT22;58605;48.700;8.760;2023-09-30T11:04:02;19.70;66.40
70947;DHT22;58605;48.700;8.760;2023-09-30T11:06:31;19.60;65.50
70947;DHT22;58605;48.700;8.760;2023-09-30T11:08:59;19.70;67.00
70947;DHT22;58605;48.700;8.760;2023-09-30T11:11:37;19.60;67.00
70947;DHT22;58605;48.700;8.760;2023-09-30T11:14:03;19.50;68.20
70947;DHT22;58605;48.700;8.760;2023-09-30T11:16:43;19.10;70.10
70947;DHT22;58605;48.700;8.760;2023-09-30T11:19:10;19.10;69.40
70947;DHT22;58605;48.700;8.760;2023-09-30T11:21:36;19.20;71.00
70947;DHT22;58605;48.700;8.760;2023-09-30T11:24:03;19.20;69.70
70947;DHT22;58605;48.700;8.760;2023-09-30T11:26:33;19.10;70.20
70947;DHT22;58605;48.700;8.760;2023-09-30T11:29:05;19.10;70.60
70947;DHT22;58605;48.700;8.760;2023-09-30T11:31:32;19.00;70.70
70947;DHT22;58605;48.700;8.760;2023-09-30T11:34:01;19.20;69.50
70947;DHT22;58605;48.700;8.760;2023-09-30T11:36:30;19.30;68.20
70947;DHT22;58605;48.700;8.760;2023-09-30T11:38:57;19.40;67.20
70947;DHT22;58605;48.700;8.760;2023-09-30T11:41:32;19.50;68.10
70947;DHT22;58605;48.700;8.760;2023-09-30T11:44:01;19.60;66.30
70947;DHT22;58605;48.700;8.760;2023-09-30T11:46:30;19.70;63.80
70947;DHT22;58605;48.700;8.760;2023-09-30T11:49:02;19.60;64.20
70947;DHT22;58605;48.700;8.760;2023-09-30T11:51:29;19.60;65.80
70947;DHT22;58605;48.700;8.760;2023-09-30T11:53:55;19.50;64.00
70947;DHT22;58605;48.700;8.760;2023-09-30T11:56:30;19.40;65.00
70947;DHT22;58605;48.700;8.760;2023-09-30T11:58:56;19.40;64.40
70947;DHT22;58605;48.700;8.760;2023-09-30T12:01:23;19.40;63.50
70947;DHT22;58605;48.700;8.760;2023-09-30T12:03:51;19.40;64.40
70947;DHT22;58605;48.700;8.760;2023-09-30T12:06:19;19.40;64.10
70947;DHT22;58605;48.700;8.760;2023-09-30T12:08:45;19.30;66.50
70947;DHT22;58605;48.700;8.760;2023-09-30T12:11:11;19.50;64.80
70947;DHT22;58605;48.700;8.760;2023-09-30T12:13:40;19.70;65.10
70947;DHT22;58605;48.700;8.760;2023-09-30T12:16:06;19.60;64.40
70947;DHT22;58605;48.700;8.760;2023-09-30T12:18:32;19.60;65.10
70947;DHT22;58605;48.700;8.760;2023-09-30T12:21:01;19.70;65.80
70947;DHT22;58605;48.700;8.760;2023-09-30T12:23:36;19.70;65.40
70947;DHT22;58605;48.700;8.760;2023-09-30T12:26:02;19.80;65.90
70947;DHT22;58605;48.700;8.760;2023-09-30T12:28:31;19.70;64.80
70947;DHT22;58605;48.700;8.760;2023-09-30T12:30:58;19.80;63.80
70947;DHT22;58605;48.700;8.760;2023-09-30T12:33:24;19.90;66.30
70947;DHT22;58605;48.700;8.760;2023-09-30T12:35:50;19.90;63.80
70947;DHT22;58605;48.700;8.760;2023-09-30T12:38:17;20.10;65.30
70947;DHT22;58605;48.700;8.760;2023-09-30T12:40:45;20.20;65.40
70947;DHT22;58605;48.700;8.760;2023-09-30T12:43:11;20.00;65.90
70947;DHT22;58605;48.700;8.760;2023-09-30T12:45:40;20.20;64.20
70947;DHT22;58605;48.700;8.760;2023-09-30T12:48:06;20.20;59.20
70947;DHT22;58605;48.700;8.760;2023-09-30T12:50:33;20.10;63.80
70947;DHT22;58605;48.700;8.760;2023-09-30T12:52:59;19.70;65.00
70947;DHT22;58605;48.700;8.760;2023-09-30T12:55:25;19.60;66.10
70947;DHT22;58605;48.700;8.760;2023-09-30T12:57:54;20.00;60.70
70947;DHT22;58605;48.700;8.760;2023-09-30T13:00:20;20.20;59.70
70947;DHT22;58605;48.700;8.760;2023-09-30T13:02:47;20.10;62.80
70947;DHT22;58605;48.700;8.760;2023-09-30T13:05:14;20.20;64.20
70947;DHT22;58605;48.700;8.760;2023-09-30T13:07:42;20.00;63.70
70947;DHT22;58605;48.700;8.760;2023-09-30T13:10:09;19.90;64.60
70947;DHT22;58605;48.700;8.760;2023-09-30T13:12:35;19.90;65.00
70947;DHT22;58605;48.700;8.760;2023-09-30T13:15:04;19.70;64.90
70947;DHT22;58605;48.700;8.760;2023-09-30T13:17:30;19.80;64.90
70947;DHT22;58605;48.700;8.760;2023-09-30T13:19:57;19.70;65.10
70947;DHT22;58605;48.700;8.760;2023-09-30T13:22:23;19.70;64.30
70947;DHT22;58605;48.700;8.760;2023-09-30T13:24:50;19.70;63.90
70947;DHT22;58605;48.700;8.760;2023-09-30T13:27:16;19.80;65.30
70947;DHT22;58605;48.700;8.760;2023-09-30T13:29:44;19.90;65.70
70947;DHT22;58605;48.700;8.760;2023-09-30T13:32:11;19.90;64.40
70947;DHT22;58605;48.700;8.760;2023-09-30T13:34:38;19.80;63.40
70947;DHT22;58605;48.700;8.760;2023-09-30T13:37:04;19.90;63.30
70947;DHT22;58605;48.700;8.760;2023-09-30T13:39:30;20.00;63.70
70947;DHT22;58605;48.700;8.760;2023-09-30T13:41:56;20.10;62.00
70947;DHT22;58605;48.700;8.760;2023-09-30T13:44:22;20.10;64.70
70947;DHT22;58605;48.700;8.760;2023-09-30T13:46:49;19.80;65.40
70947;DHT22;58605;48.700;8.760;2023-09-30T13:49:16;19.90;63.90
70947;DHT22;58605;48.700;8.760;2023-09-30T13:51:43;20.10;63.30
70947;DHT22;58605;48.700;8.760;2023-09-30T13:54:09;20.10;63.10
70947;DHT22;58605;48.700;8.760;2023-09-30T13:56:35;20.30;62.20
70947;DHT22;58605;48.700;8.760;2023-09-30T13:59:01;20.30;60.00
70947;DHT22;58605;48.700;8.760;2023-09-30T14:01:27;20.40;61.50
70947;DHT22;58605;48.700;8.760;2023-09-30T14:03:54;20.40;61.50
70947;DHT22;58605;48.700;8.760;2023-09-30T14:06:24;20.20;62.50
70947;DHT22;58605;48.700;8.760;2023-09-30T14:08:50;20.00;63.20
70947;DHT22;58605;48.700;8.760;2023-09-30T14:11:18;19.90;64.00
70947;DHT22;58605;48.700;8.760;2023-09-30T14:13:44;19.80;65.70
70947;DHT22;58605;48.700;8.760;2023-09-30T14:16:11;19.80;64.30
70947;DHT22;58605;48.700;8.760;2023-09-30T14:18:37;19.70;64.60
70947;DHT22;58605;48.700;8.760;2023-09-30T14:21:04;19.70;64.70
70947;DHT22;58605;48.700;8.760;2023-09-30T14:23:32;19.70;64.30
70947;DHT22;58605;48.700;8.760;2023-09-30T14:25:58;19.80;64.30
70947;DHT22;58605;48.700;8.760;2023-09-30T14:28:36;19.80;63.60
70947;DHT22;58605;48.700;8.760;2023-09-30T14:31:03;19.80;64.30
70947;DHT22;58605;48.700;8.760;2023-09-30T14:33:29;19.60;65.20
70947;DHT22;58605;48.700;8.760;2023-09-30T14:35:56;19.70;65.20
70947;DHT22;58605;48.700;8.760;2023-09-30T14:38:22;19.60;64.40
70947;DHT22;58605;48.700;8.760;2023-09-30T14:40:50;19.60;64.30
70947;DHT22;58605;48.700;8.760;2023-09-30T14:43:17;19.60;65.10
70947;DHT22;58605;48.700;8.760;2023-09-30T14:45:43;19.50;63.80
70947;DHT22;58605;48.700;8.760;2023-09-30T14:48:15;19.50;64.50
70947;DHT22;58605;48.700;8.760;2023-09-30T14:50:48;19.50;66.00
70947;DHT22;58605;48.700;8.760;2023-09-30T14:53:17;19.40;64.50
70947;DHT22;58605;48.700;8.760;2023-09-30T14:55:43;19.40;65.40
70947;DHT22;58605;48.700;8.760;2023-09-30T14:58:10;19.40;64.30
70947;DHT22;58605;48.700;8.760;2023-09-30T15:00:37;19.50;65.20
70947;DHT22;58605;48.700;8.760;2023-09-30T15:03:03;19.60;64.10
70947;DHT22;58605;48.700;8.760;2023-09-30T15:05:31;19.70;64.30
70947;DHT22;58605;48.700;8.760;2023-09-30T15:07:57;19.80;63.80
70947;DHT22;58605;48.700;8.760;2023-09-30T15:10:25;19.80;65.30
70947;DHT22;58605;48.700;8.760;2023-09-30T15:12:51;19.70;64.30
70947;DHT22;58605;48.700;8.760;2023-09-30T15:15:20;19.60;66.40
70947;DHT22;58605;48.700;8.760;2023-09-30T15:17:46;19.60;65.90
70947;DHT22;58605;48.700;8.760;2023-09-30T15:20:12;19.60;65.90
70947;DHT22;58605;48.700;8.760;2023-09-30T15:22:38;19.50;66.20
70947;DHT22;58605;48.700;8.760;2023-09-30T15:25:05;19.40;65.60
70947;DHT22;58605;48.700;8.760;2023-09-30T15:27:31;19.30;65.30
70947;DHT22;58605;48.700;8.760;2023-09-30T15:29:58;19.40;66.50
70947;DHT22;58605;48.700;8.760;2023-09-30T15:32:26;19.30;65.10
70947;DHT22;58605;48.700;8.760;2023-09-30T15:34:53;19.30;66.30
70947;DHT22;58605;48.700;8.760;2023-09-30T15:37:19;19.40;66.60